Dale City, VA

9:35 PM EDT on April 18, 2015 (GMT -0400)
Pearsons Landing | | Change Station
CLOSE
Current Station
Personal Weather Station
Location: Woodbridge, VA
Elevation: 292 ft
Nearby Weather Stations

Elev 292 ft 38.65 °N, 77.36 °W | Updated 9 seconds ago

Partly Cloudy
Partly Cloudy
61.9 °F
Feels Like 61.9 °F
N
0.9
Wind Variable Wind from NW
Gusts 2.2 mph

Today
High -- | Low -- °F
--% Chance of Precip.
Yesterday
High -- | Low -- °F
Precip. -- in
6:29 AM 7:48 PM
New Moon, 0% visible
Pressure 29.99 in
Visibility 10.0 miles
Clouds Clear
Dew Point 49 °F
Humidity 62%
Rainfall 0.00 in
Snow Depth Not available.
UV 0.0 out of 12
Pollen 11.50 out of 12
Air Quality Not available.
Flu Activity Local Activity
METAR KNYG 190056Z AUTO 00000KT 10SM CLR 20/13 A2999 RMK AO2 SLP155 T02000128

More Conditions Fewer Conditions

Pressure 29.99 in
Visibility 10.0 miles
Clouds Clear
Dew Point 49 °F
Humidity 62%
Rainfall 0.00 in
Snow Depth Not available.
UV 0.0 out of 12
Pollen 11.50 out of 12
Air Quality Not available.
Flu Activity Local Activity
METAR KNYG 190056Z AUTO 00000KT 10SM CLR 20/13 A2999 RMK AO2 SLP155 T02000128

More Conditions Fewer Conditions

10-Day Weather Forecast

Almanac

Astronomy

Apr. 18, 2015 Rise Set
Actual Time
Civil Twilight
Nautical Twilight
Astronomical Twilight
Moon
Length of Visible Light
Length of Day
Tomorrow will be .
, % of the Moon is Illuminated

Today's Extremes

State Highs State Lows

Community

WunderPhotos

Upload Photos

1,814,626 photos uploaded!

WunderBlogs® & News

Nearby

Air Quality

  Air Quality AQ Index Pollutant
Not available.

Snow Depth

Station Depth Elevation

Earthquake Activity

City Distance Mag. Time & Date
Minimum magnitude displayed is 2.5.

Coastal Water Temperatures

Place Temperature

Stations

Nearby Weather Stations

Station Location Temp. Windchill Dew Point Humidity Wind Precip. Elev Updated Type